sensor_id;sensor_type;location;lat;lon;timestamp;P1;durP1;ratioP1;P2;durP2;ratioP2
10945;SDS011;5525;42.648;23.368;2023-06-04T00:01:08;6.03;;;5.43;;
10945;SDS011;5525;42.648;23.368;2023-06-04T00:03:35;7.90;;;5.55;;
10945;SDS011;5525;42.648;23.368;2023-06-04T00:06:01;6.15;;;5.53;;
10945;SDS011;5525;42.648;23.368;2023-06-04T00:08:30;8.43;;;5.78;;
10945;SDS011;5525;42.648;23.368;2023-06-04T00:10:56;7.45;;;5.60;;
10945;SDS011;5525;42.648;23.368;2023-06-04T00:13:23;10.25;;;5.80;;
10945;SDS011;5525;42.648;23.368;2023-06-04T00:15:50;6.45;;;5.60;;
10945;SDS011;5525;42.648;23.368;2023-06-04T00:18:17;9.82;;;7.20;;
10945;SDS011;5525;42.648;23.368;2023-06-04T00:20:43;6.53;;;5.93;;
10945;SDS011;5525;42.648;23.368;2023-06-04T00:23:10;7.78;;;5.53;;
10945;SDS011;5525;42.648;23.368;2023-06-04T00:25:38;5.63;;;4.95;;
10945;SDS011;5525;42.648;23.368;2023-06-04T00:28:05;6.07;;;5.45;;
10945;SDS011;5525;42.648;23.368;2023-06-04T00:30:32;5.82;;;4.97;;
10945;SDS011;5525;42.648;23.368;2023-06-04T00:32:59;5.90;;;5.30;;
10945;SDS011;5525;42.648;23.368;2023-06-04T00:35:25;6.25;;;5.10;;
10945;SDS011;5525;42.648;23.368;2023-06-04T00:37:52;6.47;;;5.13;;
10945;SDS011;5525;42.648;23.368;2023-06-04T00:40:19;5.60;;;5.10;;
10945;SDS011;5525;42.648;23.368;2023-06-04T00:42:47;6.88;;;5.43;;
10945;SDS011;5525;42.648;23.368;2023-06-04T00:45:14;11.75;;;5.07;;
10945;SDS011;5525;42.648;23.368;2023-06-04T00:47:43;6.00;;;5.40;;
10945;SDS011;5525;42.648;23.368;2023-06-04T00:50:10;6.00;;;5.32;;
10945;SDS011;5525;42.648;23.368;2023-06-04T00:52:37;5.93;;;5.30;;
10945;SDS011;5525;42.648;23.368;2023-06-04T00:55:04;6.07;;;5.47;;
10945;SDS011;5525;42.648;23.368;2023-06-04T00:57:31;7.10;;;5.80;;
10945;SDS011;5525;42.648;23.368;2023-06-04T00:59:59;6.80;;;6.10;;
10945;SDS011;5525;42.648;23.368;2023-06-04T01:02:26;8.43;;;6.82;;
10945;SDS011;5525;42.648;23.368;2023-06-04T01:04:57;7.93;;;7.22;;
10945;SDS011;5525;42.648;23.368;2023-06-04T01:07:29;10.40;;;8.80;;
10945;SDS011;5525;42.648;23.368;2023-06-04T01:09:56;11.85;;;9.07;;
10945;SDS011;5525;42.648;23.368;2023-06-04T01:12:23;10.43;;;8.80;;
10945;SDS011;5525;42.648;23.368;2023-06-04T01:14:50;10.77;;;9.68;;
10945;SDS011;5525;42.648;23.368;2023-06-04T01:17:19;11.82;;;10.57;;
10945;SDS011;5525;42.648;23.368;2023-06-04T01:22:53;13.02;;;10.63;;
10945;SDS011;5525;42.648;23.368;2023-06-04T01:25:32;12.18;;;10.80;;
10945;SDS011;5525;42.648;23.368;2023-06-04T01:27:59;12.45;;;10.65;;
10945;SDS011;5525;42.648;23.368;2023-06-04T01:30:29;12.10;;;10.90;;
10945;SDS011;5525;42.648;23.368;2023-06-04T01:32:59;14.57;;;12.00;;
10945;SDS011;5525;42.648;23.368;2023-06-04T01:35:27;12.73;;;10.68;;
10945;SDS011;5525;42.648;23.368;2023-06-04T01:37:56;12.02;;;10.05;;
10945;SDS011;5525;42.648;23.368;2023-06-04T01:40:23;12.40;;;10.18;;
10945;SDS011;5525;42.648;23.368;2023-06-04T01:42:51;9.15;;;8.25;;
10945;SDS011;5525;42.648;23.368;2023-06-04T01:45:18;9.60;;;7.78;;
10945;SDS011;5525;42.648;23.368;2023-06-04T01:47:45;7.18;;;6.07;;
10945;SDS011;5525;42.648;23.368;2023-06-04T01:50:13;6.38;;;5.60;;
10945;SDS011;5525;42.648;23.368;2023-06-04T01:52:40;5.75;;;5.20;;
10945;SDS011;5525;42.648;23.368;2023-06-04T01:55:07;5.40;;;4.90;;
10945;SDS011;5525;42.648;23.368;2023-06-04T01:57:37;5.22;;;3.97;;
10945;SDS011;5525;42.648;23.368;2023-06-04T02:00:05;4.07;;;3.67;;
10945;SDS011;5525;42.648;23.368;2023-06-04T02:02:34;3.97;;;3.53;;
10945;SDS011;5525;42.648;23.368;2023-06-04T02:05:02;4.57;;;4.18;;
10945;SDS011;5525;42.648;23.368;2023-06-04T02:07:34;3.65;;;3.35;;
10945;SDS011;5525;42.648;23.368;2023-06-04T02:10:03;3.75;;;3.35;;
10945;SDS011;5525;42.648;23.368;2023-06-04T02:12:31;3.85;;;3.55;;
10945;SDS011;5525;42.648;23.368;2023-06-04T02:14:57;3.80;;;3.38;;
10945;SDS011;5525;42.648;23.368;2023-06-04T02:17:24;3.72;;;3.42;;
10945;SDS011;5525;42.648;23.368;2023-06-04T02:19:51;5.32;;;3.83;;
10945;SDS011;5525;42.648;23.368;2023-06-04T02:22:17;5.00;;;3.90;;
10945;SDS011;5525;42.648;23.368;2023-06-04T02:24:46;4.15;;;3.78;;
10945;SDS011;5525;42.648;23.368;2023-06-04T02:27:13;5.55;;;4.60;;
10945;SDS011;5525;42.648;23.368;2023-06-04T02:29:40;7.00;;;4.70;;
10945;SDS011;5525;42.648;23.368;2023-06-04T02:32:07;4.40;;;4.00;;
10945;SDS011;5525;42.648;23.368;2023-06-04T02:34:34;5.05;;;4.55;;
10945;SDS011;5525;42.648;23.368;2023-06-04T02:37:01;4.72;;;4.32;;
10945;SDS011;5525;42.648;23.368;2023-06-04T02:39:28;4.38;;;3.95;;
10945;SDS011;5525;42.648;23.368;2023-06-04T02:41:56;5.10;;;4.30;;
10945;SDS011;5525;42.648;23.368;2023-06-04T02:44:23;4.45;;;4.00;;
10945;SDS011;5525;42.648;23.368;2023-06-04T02:46:50;5.75;;;4.03;;
10945;SDS011;5525;42.648;23.368;2023-06-04T02:49:16;4.25;;;3.80;;
10945;SDS011;5525;42.648;23.368;2023-06-04T02:51:43;3.85;;;3.42;;
10945;SDS011;5525;42.648;23.368;2023-06-04T02:54:12;4.80;;;3.63;;
10945;SDS011;5525;42.648;23.368;2023-06-04T02:56:38;4.30;;;3.90;;
10945;SDS011;5525;42.648;23.368;2023-06-04T02:59:07;6.00;;;4.13;;
10945;SDS011;5525;42.648;23.368;2023-06-04T03:01:34;4.75;;;4.00;;
10945;SDS011;5525;42.648;23.368;2023-06-04T03:04:02;4.80;;;3.80;;
10945;SDS011;5525;42.648;23.368;2023-06-04T03:06:30;4.05;;;3.65;;
10945;SDS011;5525;42.648;23.368;2023-06-04T03:08:57;6.60;;;3.75;;
10945;SDS011;5525;42.648;23.368;2023-06-04T03:11:24;4.80;;;3.95;;
10945;SDS011;5525;42.648;23.368;2023-06-04T03:13:53;3.83;;;3.53;;
10945;SDS011;5525;42.648;23.368;2023-06-04T03:16:21;4.63;;;4.20;;
10945;SDS011;5525;42.648;23.368;2023-06-04T03:18:48;5.10;;;4.07;;
10945;SDS011;5525;42.648;23.368;2023-06-04T03:21:15;4.88;;;4.35;;
10945;SDS011;5525;42.648;23.368;2023-06-04T03:23:42;4.22;;;3.78;;
10945;SDS011;5525;42.648;23.368;2023-06-04T03:26:10;3.88;;;3.58;;
10945;SDS011;5525;42.648;23.368;2023-06-04T03:28:38;5.22;;;3.67;;
10945;SDS011;5525;42.648;23.368;2023-06-04T03:31:05;5.22;;;3.80;;
10945;SDS011;5525;42.648;23.368;2023-06-04T03:33:33;5.85;;;3.92;;
10945;SDS011;5525;42.648;23.368;2023-06-04T03:36:00;4.75;;;3.60;;
10945;SDS011;5525;42.648;23.368;2023-06-04T03:38:27;4.53;;;3.88;;
10945;SDS011;5525;42.648;23.368;2023-06-04T03:40:54;5.35;;;4.07;;
10945;SDS011;5525;42.648;23.368;2023-06-04T03:43:21;4.70;;;3.92;;
10945;SDS011;5525;42.648;23.368;2023-06-04T03:45:48;5.05;;;3.72;;
10945;SDS011;5525;42.648;23.368;2023-06-04T03:48:14;4.35;;;3.67;;
10945;SDS011;5525;42.648;23.368;2023-06-04T03:50:42;3.50;;;3.20;;
10945;SDS011;5525;42.648;23.368;2023-06-04T03:53:11;5.65;;;4.00;;
10945;SDS011;5525;42.648;23.368;2023-06-04T03:55:37;4.07;;;3.70;;
10945;SDS011;5525;42.648;23.368;2023-06-04T03:58:04;4.30;;;3.90;;
10945;SDS011;5525;42.648;23.368;2023-06-04T04:00:34;4.40;;;3.80;;
10945;SDS011;5525;42.648;23.368;2023-06-04T04:03:01;4.63;;;3.83;;
10945;SDS011;5525;42.648;23.368;2023-06-04T04:05:27;4.18;;;3.55;;
10945;SDS011;5525;42.648;23.368;2023-06-04T04:07:56;4.30;;;3.90;;
10945;SDS011;5525;42.648;23.368;2023-06-04T04:10:22;4.72;;;3.95;;
10945;SDS011;5525;42.648;23.368;2023-06-04T04:12:49;4.40;;;3.88;;
10945;SDS011;5525;42.648;23.368;2023-06-04T04:15:16;5.90;;;4.80;;
10945;SDS011;5525;42.648;23.368;2023-06-04T04:17:43;4.65;;;4.22;;
10945;SDS011;5525;42.648;23.368;2023-06-04T04:20:10;4.75;;;4.22;;
10945;SDS011;5525;42.648;23.368;2023-06-04T04:22:39;7.05;;;4.30;;
10945;SDS011;5525;42.648;23.368;2023-06-04T04:25:09;7.45;;;4.80;;
10945;SDS011;5525;42.648;23.368;2023-06-04T04:27:36;5.47;;;4.35;;
10945;SDS011;5525;42.648;23.368;2023-06-04T04:30:07;7.25;;;4.32;;
10945;SDS011;5525;42.648;23.368;2023-06-04T04:32:34;5.70;;;4.20;;
10945;SDS011;5525;42.648;23.368;2023-06-04T04:35:04;4.80;;;4.30;;
10945;SDS011;5525;42.648;23.368;2023-06-04T04:37:32;5.20;;;4.70;;
10945;SDS011;5525;42.648;23.368;2023-06-04T04:40:00;4.68;;;4.28;;
10945;SDS011;5525;42.648;23.368;2023-06-04T04:42:28;5.70;;;4.63;;
10945;SDS011;5525;42.648;23.368;2023-06-04T04:44:54;6.18;;;4.85;;
10945;SDS011;5525;42.648;23.368;2023-06-04T04:47:21;5.28;;;4.57;;
10945;SDS011;5525;42.648;23.368;2023-06-04T04:49:48;6.07;;;4.82;;
10945;SDS011;5525;42.648;23.368;2023-06-04T04:52:15;5.45;;;4.95;;
10945;SDS011;5525;42.648;23.368;2023-06-04T04:54:41;5.22;;;4.70;;
10945;SDS011;5525;42.648;23.368;2023-06-04T04:57:08;8.02;;;4.90;;
10945;SDS011;5525;42.648;23.368;2023-06-04T04:59:36;6.40;;;4.88;;
10945;SDS011;5525;42.648;23.368;2023-06-04T05:02:03;6.55;;;4.90;;
10945;SDS011;5525;42.648;23.368;2023-06-04T05:04:30;5.53;;;5.03;;
10945;SDS011;5525;42.648;23.368;2023-06-04T05:06:56;6.00;;;4.38;;
10945;SDS011;5525;42.648;23.368;2023-06-04T05:09:23;5.68;;;5.18;;
10945;SDS011;5525;42.648;23.368;2023-06-04T05:11:50;5.97;;;4.72;;
10945;SDS011;5525;42.648;23.368;2023-06-04T05:14:16;7.60;;;4.75;;
10945;SDS011;5525;42.648;23.368;2023-06-04T05:16:44;5.38;;;4.88;;
10945;SDS011;5525;42.648;23.368;2023-06-04T05:19:13;5.20;;;4.70;;
10945;SDS011;5525;42.648;23.368;2023-06-04T05:21:41;6.35;;;4.75;;
10945;SDS011;5525;42.648;23.368;2023-06-04T05:24:08;6.30;;;4.88;;
10945;SDS011;5525;42.648;23.368;2023-06-04T05:26:35;5.57;;;5.07;;
10945;SDS011;5525;42.648;23.368;2023-06-04T05:29:04;8.95;;;5.40;;
10945;SDS011;5525;42.648;23.368;2023-06-04T05:31:31;7.93;;;5.20;;
10945;SDS011;5525;42.648;23.368;2023-06-04T05:34:01;7.60;;;5.40;;
10945;SDS011;5525;42.648;23.368;2023-06-04T05:36:29;6.90;;;5.43;;
10945;SDS011;5525;42.648;23.368;2023-06-04T05:38:56;6.30;;;5.55;;
10945;SDS011;5525;42.648;23.368;2023-06-04T05:41:24;6.72;;;5.97;;
10945;SDS011;5525;42.648;23.368;2023-06-04T05:43:52;5.60;;;5.10;;
10945;SDS011;5525;42.648;23.368;2023-06-04T05:46:20;9.20;;;6.00;;
10945;SDS011;5525;42.648;23.368;2023-06-04T05:48:46;6.35;;;5.53;;
10945;SDS011;5525;42.648;23.368;2023-06-04T05:51:14;6.78;;;5.45;;
10945;SDS011;5525;42.648;23.368;2023-06-04T05:53:41;9.02;;;5.60;;
10945;SDS011;5525;42.648;23.368;2023-06-04T05:56:08;6.90;;;5.60;;
10945;SDS011;5525;42.648;23.368;2023-06-04T05:58:35;5.90;;;5.28;;
10945;SDS011;5525;42.648;23.368;2023-06-04T06:01:02;7.95;;;5.70;;
10945;SDS011;5525;42.648;23.368;2023-06-04T06:03:29;7.00;;;5.72;;
10945;SDS011;5525;42.648;23.368;2023-06-04T06:05:56;6.97;;;6.28;;
10945;SDS011;5525;42.648;23.368;2023-06-04T06:08:26;6.65;;;5.90;;
10945;SDS011;5525;42.648;23.368;2023-06-04T06:10:52;5.97;;;5.45;;
10945;SDS011;5525;42.648;23.368;2023-06-04T06:13:19;9.65;;;5.63;;
10945;SDS011;5525;42.648;23.368;2023-06-04T06:15:46;6.85;;;5.75;;
10945;SDS011;5525;42.648;23.368;2023-06-04T06:18:13;6.22;;;5.63;;
10945;SDS011;5525;42.648;23.368;2023-06-04T06:20:40;9.18;;;5.53;;
10945;SDS011;5525;42.648;23.368;2023-06-04T06:23:07;6.47;;;5.40;;
10945;SDS011;5525;42.648;23.368;2023-06-04T06:25:35;5.75;;;5.25;;
10945;SDS011;5525;42.648;23.368;2023-06-04T06:28:05;6.65;;;5.40;;
10945;SDS011;5525;42.648;23.368;2023-06-04T06:30:32;5.88;;;4.95;;
10945;SDS011;5525;42.648;23.368;2023-06-04T06:32:58;6.20;;;4.97;;
10945;SDS011;5525;42.648;23.368;2023-06-04T06:35:25;8.57;;;5.28;;
10945;SDS011;5525;42.648;23.368;2023-06-04T06:37:52;7.57;;;5.10;;
10945;SDS011;5525;42.648;23.368;2023-06-04T06:40:19;8.15;;;5.13;;
10945;SDS011;5525;42.648;23.368;2023-06-04T06:42:49;7.85;;;5.45;;
10945;SDS011;5525;42.648;23.368;2023-06-04T06:45:16;8.55;;;5.10;;
10945;SDS011;5525;42.648;23.368;2023-06-04T06:47:43;5.65;;;4.80;;
10945;SDS011;5525;42.648;23.368;2023-06-04T06:50:10;9.52;;;5.20;;
10945;SDS011;5525;42.648;23.368;2023-06-04T06:52:37;7.20;;;4.95;;
10945;SDS011;5525;42.648;23.368;2023-06-04T06:55:04;7.30;;;5.10;;
10945;SDS011;5525;42.648;23.368;2023-06-04T06:57:31;7.70;;;5.78;;
10945;SDS011;5525;42.648;23.368;2023-06-04T06:59:59;5.28;;;4.75;;
10945;SDS011;5525;42.648;23.368;2023-06-04T07:02:26;7.65;;;5.20;;
10945;SDS011;5525;42.648;23.368;2023-06-04T07:04:53;5.97;;;5.20;;
10945;SDS011;5525;42.648;23.368;2023-06-04T07:07:20;5.50;;;5.00;;
10945;SDS011;5525;42.648;23.368;2023-06-04T07:09:47;6.60;;;4.95;;
10945;SDS011;5525;42.648;23.368;2023-06-04T07:12:14;5.78;;;4.40;;
10945;SDS011;5525;42.648;23.368;2023-06-04T07:14:40;8.02;;;5.18;;
10945;SDS011;5525;42.648;23.368;2023-06-04T07:17:09;5.90;;;5.03;;
10945;SDS011;5525;42.648;23.368;2023-06-04T07:19:36;6.25;;;5.05;;
10945;SDS011;5525;42.648;23.368;2023-06-04T07:22:02;8.75;;;5.25;;
10945;SDS011;5525;42.648;23.368;2023-06-04T07:24:30;5.85;;;5.25;;
10945;SDS011;5525;42.648;23.368;2023-06-04T07:26:56;8.02;;;5.50;;
10945;SDS011;5525;42.648;23.368;2023-06-04T07:29:23;6.72;;;5.45;;
10945;SDS011;5525;42.648;23.368;2023-06-04T07:31:50;6.15;;;5.55;;
10945;SDS011;5525;42.648;23.368;2023-06-04T07:34:18;6.68;;;5.13;;
10945;SDS011;5525;42.648;23.368;2023-06-04T07:36:44;5.63;;;4.95;;
10945;SDS011;5525;42.648;23.368;2023-06-04T07:39:11;8.23;;;5.78;;
10945;SDS011;5525;42.648;23.368;2023-06-04T07:41:38;6.85;;;5.50;;
10945;SDS011;5525;42.648;23.368;2023-06-04T07:44:05;6.05;;;5.45;;
10945;SDS011;5525;42.648;23.368;2023-06-04T07:46:31;6.63;;;5.75;;
10945;SDS011;5525;42.648;23.368;2023-06-04T07:48:58;6.18;;;5.22;;
10945;SDS011;5525;42.648;23.368;2023-06-04T07:51:26;6.45;;;5.78;;
10945;SDS011;5525;42.648;23.368;2023-06-04T07:53:53;6.68;;;5.90;;
10945;SDS011;5525;42.648;23.368;2023-06-04T07:56:20;8.38;;;5.75;;
10945;SDS011;5525;42.648;23.368;2023-06-04T07:58:47;7.47;;;5.68;;
10945;SDS011;5525;42.648;23.368;2023-06-04T08:01:13;8.30;;;5.70;;
10945;SDS011;5525;42.648;23.368;2023-06-04T08:03:40;7.10;;;5.63;;
10945;SDS011;5525;42.648;23.368;2023-06-04T08:06:07;7.97;;;5.70;;
10945;SDS011;5525;42.648;23.368;2023-06-04T08:08:36;7.80;;;5.72;;
10945;SDS011;5525;42.648;23.368;2023-06-04T08:11:03;7.28;;;5.70;;
10945;SDS011;5525;42.648;23.368;2023-06-04T08:13:29;6.10;;;5.47;;
10945;SDS011;5525;42.648;23.368;2023-06-04T08:15:56;8.05;;;5.80;;
10945;SDS011;5525;42.648;23.368;2023-06-04T08:18:23;7.93;;;6.20;;
10945;SDS011;5525;42.648;23.368;2023-06-04T08:20:50;7.28;;;6.15;;
10945;SDS011;5525;42.648;23.368;2023-06-04T08:23:16;9.75;;;6.00;;
10945;SDS011;5525;42.648;23.368;2023-06-04T08:25:44;8.02;;;6.53;;
10945;SDS011;5525;42.648;23.368;2023-06-04T08:28:12;7.03;;;6.32;;
10945;SDS011;5525;42.648;23.368;2023-06-04T08:30:41;7.15;;;6.43;;
10945;SDS011;5525;42.648;23.368;2023-06-04T08:33:08;6.72;;;6.03;;
10945;SDS011;5525;42.648;23.368;2023-06-04T08:35:36;9.93;;;6.40;;
10945;SDS011;5525;42.648;23.368;2023-06-04T08:38:02;8.77;;;6.47;;
10945;SDS011;5525;42.648;23.368;2023-06-04T08:40:29;9.88;;;6.40;;
10945;SDS011;5525;42.648;23.368;2023-06-04T08:42:58;7.13;;;6.43;;
10945;SDS011;5525;42.648;23.368;2023-06-04T08:45:26;6.97;;;6.28;;
10945;SDS011;5525;42.648;23.368;2023-06-04T08:47:53;9.27;;;6.85;;
10945;SDS011;5525;42.648;23.368;2023-06-04T08:50:21;7.28;;;6.53;;
10945;SDS011;5525;42.648;23.368;2023-06-04T08:52:51;7.78;;;6.88;;
10945;SDS011;5525;42.648;23.368;2023-06-04T08:55:19;8.82;;;6.47;;
10945;SDS011;5525;42.648;23.368;2023-06-04T08:57:47;8.15;;;6.72;;
10945;SDS011;5525;42.648;23.368;2023-06-04T09:00:17;8.93;;;6.38;;
10945;SDS011;5525;42.648;23.368;2023-06-04T09:02:44;8.02;;;6.22;;
10945;SDS011;5525;42.648;23.368;2023-06-04T09:05:14;7.43;;;6.68;;
10945;SDS011;5525;42.648;23.368;2023-06-04T09:07:45;8.20;;;6.63;;
10945;SDS011;5525;42.648;23.368;2023-06-04T09:10:13;7.63;;;6.32;;
10945;SDS011;5525;42.648;23.368;2023-06-04T09:12:45;7.72;;;6.55;;
10945;SDS011;5525;42.648;23.368;2023-06-04T09:15:13;8.27;;;6.30;;
10945;SDS011;5525;42.648;23.368;2023-06-04T09:17:41;8.10;;;6.25;;
10945;SDS011;5525;42.648;23.368;2023-06-04T09:20:08;7.80;;;6.40;;
10945;SDS011;5525;42.648;23.368;2023-06-04T09:22:44;9.02;;;6.43;;
10945;SDS011;5525;42.648;23.368;2023-06-04T09:25:18;8.45;;;7.22;;
10945;SDS011;5525;42.648;23.368;2023-06-04T09:27:46;8.38;;;6.65;;
10945;SDS011;5525;42.648;23.368;2023-06-04T09:30:13;7.70;;;6.90;;
10945;SDS011;5525;42.648;23.368;2023-06-04T09:32:41;10.50;;;6.90;;
10945;SDS011;5525;42.648;23.368;2023-06-04T09:35:08;8.35;;;7.18;;
10945;SDS011;5525;42.648;23.368;2023-06-04T09:37:36;11.63;;;8.25;;
10945;SDS011;5525;42.648;23.368;2023-06-04T09:40:03;8.23;;;7.43;;
10945;SDS011;5525;42.648;23.368;2023-06-04T09:42:40;12.10;;;7.75;;
10945;SDS011;5525;42.648;23.368;2023-06-04T09:45:08;8.10;;;7.30;;
10945;SDS011;5525;42.648;23.368;2023-06-04T09:47:38;9.35;;;7.38;;
10945;SDS011;5525;42.648;23.368;2023-06-04T09:50:07;10.10;;;7.50;;
10945;SDS011;5525;42.648;23.368;2023-06-04T09:52:34;8.68;;;7.78;;
10945;SDS011;5525;42.648;23.368;2023-06-04T09:55:02;8.93;;;6.90;;
10945;SDS011;5525;42.648;23.368;2023-06-04T09:57:30;9.10;;;6.80;;
10945;SDS011;5525;42.648;23.368;2023-06-04T10:00:01;9.90;;;7.68;;
10945;SDS011;5525;42.648;23.368;2023-06-04T10:02:33;9.55;;;7.40;;
10945;SDS011;5525;42.648;23.368;2023-06-04T10:05:01;8.60;;;6.07;;
10945;SDS011;5525;42.648;23.368;2023-06-04T10:07:29;8.57;;;6.40;;
10945;SDS011;5525;42.648;23.368;2023-06-04T10:09:56;9.05;;;6.53;;
10945;SDS011;5525;42.648;23.368;2023-06-04T10:12:24;10.18;;;6.00;;
10945;SDS011;5525;42.648;23.368;2023-06-04T10:14:54;9.07;;;5.63;;
10945;SDS011;5525;42.648;23.368;2023-06-04T10:17:25;6.80;;;5.63;;
10945;SDS011;5525;42.648;23.368;2023-06-04T10:19:54;6.72;;;5.70;;
10945;SDS011;5525;42.648;23.368;2023-06-04T10:22:23;9.57;;;5.95;;
10945;SDS011;5525;42.648;23.368;2023-06-04T10:24:51;8.38;;;5.47;;
10945;SDS011;5525;42.648;23.368;2023-06-04T10:27:17;7.15;;;5.28;;
10945;SDS011;5525;42.648;23.368;2023-06-04T10:29:45;6.28;;;5.20;;
10945;SDS011;5525;42.648;23.368;2023-06-04T10:32:12;7.68;;;5.82;;
10945;SDS011;5525;42.648;23.368;2023-06-04T10:34:39;7.65;;;6.10;;
10945;SDS011;5525;42.648;23.368;2023-06-04T10:37:06;7.10;;;6.30;;
10945;SDS011;5525;42.648;23.368;2023-06-04T10:39:49;8.40;;;6.40;;
10945;SDS011;5525;42.648;23.368;2023-06-04T10:42:17;7.22;;;6.20;;
10945;SDS011;5525;42.648;23.368;2023-06-04T10:44:44;8.35;;;6.10;;
10945;SDS011;5525;42.648;23.368;2023-06-04T10:47:17;8.88;;;6.53;;
10945;SDS011;5525;42.648;23.368;2023-06-04T10:49:45;7.45;;;6.65;;
10945;SDS011;5525;42.648;23.368;2023-06-04T10:52:11;8.73;;;6.22;;
10945;SDS011;5525;42.648;23.368;2023-06-04T10:54:38;7.65;;;6.10;;
10945;SDS011;5525;42.648;23.368;2023-06-04T10:57:11;6.60;;;6.00;;
10945;SDS011;5525;42.648;23.368;2023-06-04T10:59:38;7.00;;;6.30;;
10945;SDS011;5525;42.648;23.368;2023-06-04T11:02:05;7.20;;;6.50;;
10945;SDS011;5525;42.648;23.368;2023-06-04T11:04:33;6.65;;;6.05;;
10945;SDS011;5525;42.648;23.368;2023-06-04T11:07:00;7.70;;;6.72;;
10945;SDS011;5525;42.648;23.368;2023-06-04T11:09:28;8.57;;;6.68;;
10945;SDS011;5525;42.648;23.368;2023-06-04T11:11:56;8.70;;;6.85;;
10945;SDS011;5525;42.648;23.368;2023-06-04T11:14:25;9.00;;;6.72;;
10945;SDS011;5525;42.648;23.368;2023-06-04T11:16:51;7.63;;;6.82;;
10945;SDS011;5525;42.648;23.368;2023-06-04T11:19:18;7.30;;;6.47;;
10945;SDS011;5525;42.648;23.368;2023-06-04T11:21:45;13.43;;;6.63;;
10945;SDS011;5525;42.648;23.368;2023-06-04T11:24:12;7.57;;;6.75;;
10945;SDS011;5525;42.648;23.368;2023-06-04T11:26:39;8.15;;;6.95;;
10945;SDS011;5525;42.648;23.368;2023-06-04T11:29:06;7.55;;;6.85;;
10945;SDS011;5525;42.648;23.368;2023-06-04T11:31:41;8.27;;;7.25;;
10945;SDS011;5525;42.648;23.368;2023-06-04T11:34:09;7.43;;;6.72;;
10945;SDS011;5525;42.648;23.368;2023-06-04T11:36:37;7.93;;;7.22;;
10945;SDS011;5525;42.648;23.368;2023-06-04T11:39:04;8.48;;;7.53;;
10945;SDS011;5525;42.648;23.368;2023-06-04T11:41:32;9.27;;;7.72;;
10945;SDS011;5525;42.648;23.368;2023-06-04T11:44:01;8.25;;;7.40;;
10945;SDS011;5525;42.648;23.368;2023-06-04T11:46:29;7.68;;;7.03;;
10945;SDS011;5525;42.648;23.368;2023-06-04T11:48:58;7.95;;;7.18;;
10945;SDS011;5525;42.648;23.368;2023-06-04T11:51:25;7.68;;;6.97;;
10945;SDS011;5525;42.648;23.368;2023-06-04T11:53:52;8.20;;;7.38;;
10945;SDS011;5525;42.648;23.368;2023-06-04T11:56:20;8.63;;;7.45;;
10945;SDS011;5525;42.648;23.368;2023-06-04T11:58:46;8.30;;;7.50;;
10945;SDS011;5525;42.648;23.368;2023-06-04T12:01:13;9.48;;;7.78;;
10945;SDS011;5525;42.648;23.368;2023-06-04T12:03:41;9.00;;;8.13;;
10945;SDS011;5525;42.648;23.368;2023-06-04T12:06:10;8.65;;;7.57;;
10945;SDS011;5525;42.648;23.368;2023-06-04T12:08:44;11.27;;;8.10;;
10945;SDS011;5525;42.648;23.368;2023-06-04T12:11:27;8.98;;;8.05;;
10945;SDS011;5525;42.648;23.368;2023-06-04T12:13:56;9.73;;;8.15;;
10945;SDS011;5525;42.648;23.368;2023-06-04T12:16:24;8.63;;;7.93;;
10945;SDS011;5525;42.648;23.368;2023-06-04T12:18:51;9.10;;;8.30;;
10945;SDS011;5525;42.648;23.368;2023-06-04T12:21:23;11.35;;;8.05;;
10945;SDS011;5525;42.648;23.368;2023-06-04T12:24:05;8.65;;;7.70;;
10945;SDS011;5525;42.648;23.368;2023-06-04T12:26:32;9.68;;;8.18;;
10945;SDS011;5525;42.648;23.368;2023-06-04T12:29:06;8.65;;;7.85;;
10945;SDS011;5525;42.648;23.368;2023-06-04T12:31:35;8.57;;;7.90;;
10945;SDS011;5525;42.648;23.368;2023-06-04T12:34:02;9.23;;;8.30;;
10945;SDS011;5525;42.648;23.368;2023-06-04T12:36:30;11.10;;;8.50;;
10945;SDS011;5525;42.648;23.368;2023-06-04T12:38:59;9.75;;;8.75;;
10945;SDS011;5525;42.648;23.368;2023-06-04T12:41:27;9.70;;;8.68;;
10945;SDS011;5525;42.648;23.368;2023-06-04T12:43:54;8.30;;;7.50;;
10945;SDS011;5525;42.648;23.368;2023-06-04T12:46:21;8.95;;;8.10;;
10945;SDS011;5525;42.648;23.368;2023-06-04T12:48:48;8.68;;;7.88;;
10945;SDS011;5525;42.648;23.368;2023-06-04T12:51:15;9.45;;;7.70;;
10945;SDS011;5525;42.648;23.368;2023-06-04T12:53:43;9.20;;;8.40;;
10945;SDS011;5525;42.648;23.368;2023-06-04T12:56:11;9.50;;;8.07;;
10945;SDS011;5525;42.648;23.368;2023-06-04T12:58:37;10.02;;;8.30;;
10945;SDS011;5525;42.648;23.368;2023-06-04T13:01:04;8.05;;;7.25;;
10945;SDS011;5525;42.648;23.368;2023-06-04T13:03:31;8.35;;;7.50;;
10945;SDS011;5525;42.648;23.368;2023-06-04T13:05:58;8.13;;;7.43;;
10945;SDS011;5525;42.648;23.368;2023-06-04T13:08:25;8.85;;;7.28;;
10945;SDS011;5525;42.648;23.368;2023-06-04T13:10:53;9.63;;;7.32;;
10945;SDS011;5525;42.648;23.368;2023-06-04T13:13:20;8.38;;;7.20;;
10945;SDS011;5525;42.648;23.368;2023-06-04T13:15:47;6.95;;;6.40;;
10945;SDS011;5525;42.648;23.368;2023-06-04T13:18:14;7.40;;;6.53;;
10945;SDS011;5525;42.648;23.368;2023-06-04T13:20:41;7.80;;;7.10;;
10945;SDS011;5525;42.648;23.368;2023-06-04T13:23:08;7.53;;;6.80;;
10945;SDS011;5525;42.648;23.368;2023-06-04T13:25:37;7.80;;;7.00;;
10945;SDS011;5525;42.648;23.368;2023-06-04T13:28:05;9.65;;;6.53;;
10945;SDS011;5525;42.648;23.368;2023-06-04T13:30:33;7.97;;;7.18;;
10945;SDS011;5525;42.648;23.368;2023-06-04T13:33:01;7.55;;;6.88;;
10945;SDS011;5525;42.648;23.368;2023-06-04T13:35:28;7.63;;;6.90;;
10945;SDS011;5525;42.648;23.368;2023-06-04T13:37:55;7.28;;;6.57;;
10945;SDS011;5525;42.648;23.368;2023-06-04T13:40:22;7.32;;;6.63;;
10945;SDS011;5525;42.648;23.368;2023-06-04T13:42:49;7.72;;;6.53;;
10945;SDS011;5525;42.648;23.368;2023-06-04T13:45:17;7.28;;;6.57;;
10945;SDS011;5525;42.648;23.368;2023-06-04T13:47:45;8.55;;;6.90;;
10945;SDS011;5525;42.648;23.368;2023-06-04T13:50:12;7.25;;;6.55;;
10945;SDS011;5525;42.648;23.368;2023-06-04T13:52:38;7.60;;;6.80;;
10945;SDS011;5525;42.648;23.368;2023-06-04T13:55:05;8.25;;;7.15;;
10945;SDS011;5525;42.648;23.368;2023-06-04T13:57:33;7.80;;;6.90;;
10945;SDS011;5525;42.648;23.368;2023-06-04T13:59:59;7.15;;;6.45;;
10945;SDS011;5525;42.648;23.368;2023-06-04T14:02:27;7.95;;;7.25;;
10945;SDS011;5525;42.648;23.368;2023-06-04T14:04:54;8.05;;;6.70;;
10945;SDS011;5525;42.648;23.368;2023-06-04T14:07:21;7.57;;;6.78;;
10945;SDS011;5525;42.648;23.368;2023-06-04T14:09:49;7.82;;;7.03;;
10945;SDS011;5525;42.648;23.368;2023-06-04T14:12:19;7.68;;;6.90;;
10945;SDS011;5525;42.648;23.368;2023-06-04T14:14:46;7.40;;;6.68;;
10945;SDS011;5525;42.648;23.368;2023-06-04T14:17:13;8.77;;;6.82;;
10945;SDS011;5525;42.648;23.368;2023-06-04T14:19:41;7.50;;;6.78;;
10945;SDS011;5525;42.648;23.368;2023-06-04T14:22:09;7.63;;;6.90;;
10945;SDS011;5525;42.648;23.368;2023-06-04T14:24:36;8.77;;;7.60;;
10945;SDS011;5525;42.648;23.368;2023-06-04T14:27:03;8.57;;;7.78;;
10945;SDS011;5525;42.648;23.368;2023-06-04T14:29:31;7.60;;;6.93;;
10945;SDS011;5525;42.648;23.368;2023-06-04T14:31:58;9.60;;;7.03;;
10945;SDS011;5525;42.648;23.368;2023-06-04T14:34:25;8.10;;;6.80;;
10945;SDS011;5525;42.648;23.368;2023-06-04T14:36:53;7.97;;;7.28;;
10945;SDS011;5525;42.648;23.368;2023-06-04T14:39:19;8.10;;;7.40;;
10945;SDS011;5525;42.648;23.368;2023-06-04T14:41:46;8.68;;;7.43;;
10945;SDS011;5525;42.648;23.368;2023-06-04T14:44:13;8.40;;;7.45;;
10945;SDS011;5525;42.648;23.368;2023-06-04T14:46:39;8.20;;;7.40;;
10945;SDS011;5525;42.648;23.368;2023-06-04T14:49:06;8.75;;;7.88;;
10945;SDS011;5525;42.648;23.368;2023-06-04T14:51:32;7.45;;;6.72;;